createdAt,value
2023-04-16T00:01:36.592Z,3.77
2023-04-16T00:04:12.173Z,3.73
2023-04-16T00:06:45.336Z,3.68
2023-04-16T00:09:18.862Z,3.64
2023-04-16T00:11:52.684Z,3.58
2023-04-16T00:14:26.258Z,3.54
2023-04-16T00:16:59.943Z,3.51
2023-04-16T00:19:33.621Z,3.47
2023-04-16T00:22:06.786Z,3.43
2023-04-16T00:24:40.270Z,3.41
2023-04-16T00:27:13.870Z,3.36
2023-04-16T00:29:47.747Z,3.28
2023-04-16T00:32:21.421Z,3.25
2023-04-16T00:34:55.144Z,3.19
2023-04-16T00:37:28.981Z,3.16
2023-04-16T00:40:02.350Z,3.12
2023-04-16T00:42:37.214Z,3.09
2023-04-16T00:45:13.322Z,3.08
2023-04-16T00:47:47.163Z,3.10
2023-04-16T00:50:20.598Z,3.11
2023-04-16T00:52:54.348Z,3.12
2023-04-16T00:55:27.775Z,3.12
2023-04-16T00:58:01.339Z,3.07
2023-04-16T01:00:34.937Z,2.98
2023-04-16T01:03:08.566Z,2.93
2023-04-16T01:05:42.397Z,2.91
2023-04-16T01:08:20.593Z,2.87
2023-04-16T01:10:54.019Z,2.79
2023-04-16T01:13:27.706Z,2.78
2023-04-16T01:16:01.401Z,2.72
2023-04-16T01:18:35.718Z,2.70
2023-04-16T01:21:09.511Z,2.69
2023-04-16T01:23:42.945Z,2.66
2023-04-16T01:26:16.445Z,2.63
2023-04-16T01:28:49.636Z,2.63
2023-04-16T01:31:23.226Z,2.63
2023-04-16T01:34:04.284Z,2.62
2023-04-16T01:36:41.116Z,2.61
2023-04-16T01:39:16.607Z,2.60
2023-04-16T01:41:50.411Z,2.60
2023-04-16T01:44:24.041Z,2.61
2023-04-16T01:46:57.832Z,2.61
2023-04-16T01:49:32.386Z,2.64
2023-04-16T01:52:07.994Z,2.63
2023-04-16T01:54:41.619Z,2.63
2023-04-16T01:57:15.544Z,2.63
2023-04-16T01:59:49.170Z,2.62
2023-04-16T02:02:24.734Z,2.59
2023-04-16T02:04:58.972Z,2.58
2023-04-16T02:07:32.632Z,2.55
2023-04-16T02:10:07.735Z,2.54
2023-04-16T02:12:42.560Z,2.52
2023-04-16T02:15:16.764Z,2.49
2023-04-16T02:17:53.748Z,2.48
2023-04-16T02:20:29.166Z,2.46
2023-04-16T02:23:04.120Z,2.46
2023-04-16T02:25:42.120Z,2.43
2023-04-16T02:28:18.001Z,2.37
2023-04-16T02:30:52.328Z,2.34
2023-04-16T02:33:26.956Z,2.35
2023-04-16T02:36:02.437Z,2.37
2023-04-16T02:38:37.678Z,2.34
2023-04-16T02:41:11.666Z,2.35
2023-04-16T02:43:45.125Z,2.35
2023-04-16T02:46:18.672Z,2.34
2023-04-16T02:48:52.275Z,2.32
2023-04-16T02:51:26.263Z,2.33
2023-04-16T02:53:59.886Z,2.37
2023-04-16T02:56:33.139Z,2.40
2023-04-16T02:59:07.025Z,2.42
2023-04-16T03:01:40.570Z,2.38
2023-04-16T03:04:14.412Z,2.37
2023-04-16T03:06:47.622Z,2.34
2023-04-16T03:09:21.205Z,2.33
2023-04-16T03:11:54.670Z,2.34
2023-04-16T03:14:28.495Z,2.37
2023-04-16T03:17:02.249Z,2.32
2023-04-16T03:19:36.033Z,2.29
2023-04-16T03:22:09.735Z,2.29
2023-04-16T03:24:43.330Z,2.26
2023-04-16T03:27:16.958Z,2.25
2023-04-16T03:29:51.028Z,2.26
2023-04-16T03:32:24.485Z,2.24
2023-04-16T03:34:57.940Z,2.24
2023-04-16T03:37:32.123Z,2.25
2023-04-16T03:40:07.198Z,2.25
2023-04-16T03:42:41.233Z,2.26
2023-04-16T03:45:15.378Z,2.25
2023-04-16T03:47:53.642Z,2.27
2023-04-16T03:50:28.858Z,2.30
2023-04-16T03:53:02.551Z,2.33
2023-04-16T03:55:36.762Z,2.39
2023-04-16T03:58:10.748Z,2.44
2023-04-16T04:00:45.533Z,2.49
2023-04-16T04:03:20.896Z,2.54
2023-04-16T04:05:55.612Z,2.60
2023-04-16T04:08:31.001Z,2.66
2023-04-16T04:11:04.361Z,2.76
2023-04-16T04:13:38.299Z,2.86
2023-04-16T04:16:11.756Z,2.96
2023-04-16T04:18:48.579Z,3.07
2023-04-16T04:21:23.776Z,3.17
2023-04-16T04:23:57.006Z,3.28
2023-04-16T04:26:30.793Z,3.41
2023-04-16T04:29:04.324Z,3.49
2023-04-16T04:31:37.850Z,3.61
2023-04-16T04:34:11.595Z,3.73
2023-04-16T04:36:44.984Z,3.86
2023-04-16T04:39:20.577Z,3.98
2023-04-16T04:41:54.375Z,4.15
2023-04-16T04:44:29.626Z,4.32
2023-04-16T04:47:03.562Z,4.54
2023-04-16T04:49:36.922Z,4.71
2023-04-16T04:52:11.676Z,4.87
2023-04-16T04:54:45.289Z,4.96
2023-04-16T04:57:19.065Z,5.04
2023-04-16T04:59:52.799Z,5.25
2023-04-16T05:02:26.567Z,5.39
2023-04-16T05:05:00.138Z,5.49
2023-04-16T05:07:35.001Z,5.58
2023-04-16T05:10:10.938Z,5.59
2023-04-16T05:12:44.802Z,5.60
2023-04-16T05:15:19.013Z,5.59
2023-04-16T05:17:52.552Z,5.74
2023-04-16T05:20:25.759Z,5.84
2023-04-16T05:22:59.500Z,6.06
2023-04-16T05:25:33.075Z,6.17
2023-04-16T05:28:07.120Z,6.23
2023-04-16T05:30:40.501Z,6.42
2023-04-16T05:33:14.253Z,6.57
2023-04-16T05:35:47.958Z,6.76
2023-04-16T05:38:21.505Z,6.91
2023-04-16T05:40:55.414Z,7.02
2023-04-16T05:43:29.071Z,7.05
2023-04-16T05:46:02.738Z,6.93
2023-04-16T05:48:36.483Z,6.89
2023-04-16T05:51:10.362Z,6.93
2023-04-16T05:53:44.164Z,6.97
2023-04-16T05:56:17.798Z,6.99
2023-04-16T05:58:51.305Z,7.05
2023-04-16T06:01:25.765Z,7.04
2023-04-16T06:03:59.473Z,7.16
2023-04-16T06:06:33.159Z,7.21
2023-04-16T06:09:06.690Z,7.30
2023-04-16T06:11:40.169Z,7.44
2023-04-16T06:14:13.945Z,7.53
2023-04-16T06:16:47.387Z,7.58
2023-04-16T06:19:21.587Z,7.68
2023-04-16T06:21:56.409Z,7.74
2023-04-16T06:24:29.978Z,7.76
2023-04-16T06:27:04.039Z,7.75
2023-04-16T06:29:41.616Z,7.88
2023-04-16T06:32:14.268Z,7.94
2023-04-16T06:34:49.300Z,8.29
2023-04-16T06:37:22.747Z,8.72
2023-04-16T06:39:56.400Z,9.03
2023-04-16T06:42:29.890Z,9.38
2023-04-16T06:45:03.207Z,10.37
2023-04-16T06:47:37.085Z,11.67
2023-04-16T06:50:12.609Z,13.10
2023-04-16T06:52:46.352Z,13.31
2023-04-16T06:55:20.584Z,13.95
2023-04-16T06:57:53.946Z,15.01
2023-04-16T07:00:27.347Z,15.93
2023-04-16T07:03:02.591Z,17.04
2023-04-16T07:05:36.225Z,18.18
2023-04-16T07:10:54.003Z,19.38
2023-04-16T07:13:27.869Z,19.12
2023-04-16T07:16:02.714Z,18.48
2023-04-16T07:18:36.618Z,17.32
2023-04-16T07:21:10.264Z,16.76
2023-04-16T07:23:44.803Z,17.10
2023-04-16T07:26:18.426Z,17.48
2023-04-16T07:28:52.255Z,18.30
2023-04-16T07:31:25.585Z,18.49
2023-04-16T07:33:59.168Z,17.70
2023-04-16T07:36:32.562Z,17.27
2023-04-16T07:39:06.570Z,17.85
2023-04-16T07:41:41.277Z,18.42
2023-04-16T07:44:16.516Z,18.88
2023-04-16T07:46:50.384Z,19.39
2023-04-16T07:49:23.962Z,20.76
2023-04-16T07:51:59.358Z,21.32
2023-04-16T07:54:36.002Z,20.96
2023-04-16T07:57:09.669Z,20.39
2023-04-16T07:59:43.079Z,19.27
2023-04-16T08:02:17.806Z,18.42
2023-04-16T08:04:51.304Z,18.69
2023-04-16T08:07:25.041Z,18.26
2023-04-16T08:09:58.727Z,18.15
2023-04-16T08:12:32.493Z,17.70
2023-04-16T08:15:07.529Z,18.05
2023-04-16T08:17:43.528Z,18.03
2023-04-16T08:20:19.119Z,18.05
2023-04-16T08:22:52.039Z,18.26
2023-04-16T08:25:26.015Z,18.16
2023-04-16T08:27:59.624Z,18.20
2023-04-16T08:30:33.432Z,18.14
2023-04-16T08:33:14.003Z,17.67
2023-04-16T08:35:53.653Z,18.82
2023-04-16T08:38:31.174Z,19.69
2023-04-16T08:41:09.145Z,19.45
2023-04-16T08:43:45.942Z,19.02
2023-04-16T08:46:21.382Z,18.55
2023-04-16T08:48:57.108Z,17.99
2023-04-16T08:51:33.343Z,18.94
2023-04-16T08:54:09.098Z,19.28
2023-04-16T08:56:43.996Z,20.00
2023-04-16T08:59:18.142Z,20.75
2023-04-16T09:02:00.801Z,22.01
2023-04-16T09:04:36.130Z,22.98
2023-04-16T09:07:11.428Z,23.76
2023-04-16T09:09:47.270Z,23.31
2023-04-16T09:12:20.865Z,22.89
2023-04-16T09:14:59.884Z,23.01
2023-04-16T09:17:36.412Z,22.00
2023-04-16T09:20:12.738Z,20.16
2023-04-16T09:22:46.635Z,19.17
2023-04-16T09:25:21.954Z,20.12
2023-04-16T09:27:55.764Z,21.17
2023-04-16T09:30:30.871Z,20.75
2023-04-16T09:33:20.482Z,20.42
2023-04-16T09:35:57.640Z,20.84
2023-04-16T09:38:48.521Z,21.12
2023-04-16T09:41:23.721Z,21.50
2023-04-16T09:44:04.854Z,21.13
2023-04-16T09:46:43.354Z,22.12
2023-04-16T09:49:44.396Z,20.80
2023-04-16T09:52:54.474Z,19.53
2023-04-16T09:55:34.038Z,18.93
2023-04-16T09:58:07.763Z,19.28
2023-04-16T10:00:43.687Z,20.02
2023-04-16T10:03:18.139Z,20.36
2023-04-16T10:05:54.213Z,20.56
2023-04-16T10:08:30.673Z,20.77
2023-04-16T10:11:05.099Z,20.91
2023-04-16T10:13:38.542Z,21.03
2023-04-16T10:16:12.740Z,20.97
2023-04-16T10:18:47.729Z,20.63
2023-04-16T10:21:27.171Z,20.34
2023-04-16T10:26:44.561Z,18.91
2023-04-16T10:32:01.332Z,18.72
2023-04-16T10:37:18.810Z,19.96
2023-04-16T10:39:54.011Z,20.35
2023-04-16T10:42:28.513Z,20.46
2023-04-16T10:45:04.394Z,20.41
2023-04-16T10:50:24.415Z,24.46
2023-04-16T10:53:23.871Z,25.18
2023-04-16T10:56:13.868Z,24.57
2023-04-16T10:58:47.341Z,23.77
2023-04-16T11:01:22.164Z,24.23
2023-04-16T11:03:55.701Z,23.75
2023-04-16T11:06:30.033Z,23.16
2023-04-16T11:09:05.918Z,23.04
2023-04-16T11:11:41.332Z,24.00
2023-04-16T11:14:15.578Z,24.76
2023-04-16T11:16:49.149Z,24.46
2023-04-16T11:19:22.636Z,24.60
2023-04-16T11:21:56.329Z,24.99
2023-04-16T11:27:17.064Z,24.20
2023-04-16T11:29:59.039Z,24.70
2023-04-16T11:32:35.815Z,25.68
2023-04-16T11:35:16.804Z,27.07
2023-04-16T11:37:50.016Z,27.70
2023-04-16T11:40:23.709Z,26.62
2023-04-16T11:42:58.053Z,25.79
2023-04-16T11:45:32.427Z,25.15
2023-04-16T11:48:09.910Z,23.73
2023-04-16T11:53:24.285Z,21.99
2023-04-16T11:55:57.891Z,22.44
2023-04-16T11:58:31.427Z,23.88
2023-04-16T12:01:05.858Z,25.05
2023-04-16T12:03:46.028Z,24.95
2023-04-16T12:06:19.870Z,25.14
2023-04-16T12:08:53.883Z,25.91
2023-04-16T12:11:41.860Z,25.72
2023-04-16T12:14:18.044Z,25.89
2023-04-16T12:16:55.646Z,26.41
2023-04-16T12:19:29.269Z,26.64
2023-04-16T12:22:03.876Z,27.11
2023-04-16T12:24:38.389Z,27.60
2023-04-16T12:27:12.028Z,27.43
2023-04-16T12:29:45.832Z,26.42
2023-04-16T12:32:25.296Z,25.71
2023-04-16T12:34:58.882Z,25.30
2023-04-16T12:37:33.177Z,24.60
2023-04-16T12:40:08.881Z,24.63
2023-04-16T12:42:44.539Z,24.20
2023-04-16T12:45:18.162Z,24.53
2023-04-16T12:53:32.662Z,25.52
2023-04-16T12:56:14.644Z,24.51
2023-04-16T12:58:50.234Z,23.15
2023-04-16T13:01:24.611Z,22.50
2023-04-16T13:04:04.318Z,22.09
2023-04-16T13:06:41.954Z,22.24
2023-04-16T13:09:21.008Z,21.87
2023-04-16T13:11:55.475Z,22.16
2023-04-16T13:14:28.775Z,23.39
2023-04-16T13:17:02.286Z,23.45
2023-04-16T13:19:39.676Z,22.27
2023-04-16T13:22:13.102Z,21.88
2023-04-16T13:24:46.640Z,22.17
2023-04-16T13:27:20.555Z,22.72
2023-04-16T13:29:53.922Z,23.32
2023-04-16T13:32:27.559Z,23.38
2023-04-16T13:35:01.122Z,22.79
2023-04-16T13:37:36.127Z,21.93
2023-04-16T13:40:11.748Z,22.61
2023-04-16T13:42:46.787Z,23.42
2023-04-16T13:45:21.223Z,24.04
2023-04-16T13:47:56.407Z,24.22
2023-04-16T13:50:30.259Z,24.33
2023-04-16T13:53:03.658Z,24.67
2023-04-16T13:55:37.453Z,24.71
2023-04-16T13:58:14.745Z,24.98
2023-04-16T14:00:48.572Z,24.16
2023-04-16T14:03:22.420Z,23.52
2023-04-16T14:05:56.134Z,22.16
2023-04-16T14:08:30.627Z,21.07
2023-04-16T14:11:06.039Z,19.85
2023-04-16T14:13:42.964Z,18.79
2023-04-16T14:16:19.283Z,18.30
2023-04-16T14:18:54.418Z,17.76
2023-04-16T14:21:28.942Z,17.47
2023-04-16T14:24:02.849Z,17.71
2023-04-16T14:26:36.732Z,17.99
2023-04-16T14:29:11.650Z,17.75
2023-04-16T14:31:46.919Z,17.48
2023-04-16T14:34:21.393Z,17.30
2023-04-16T14:36:55.086Z,17.32
2023-04-16T14:39:29.215Z,17.42
2023-04-16T14:42:04.561Z,17.68
2023-04-16T14:44:38.935Z,17.35
2023-04-16T14:47:15.874Z,17.47
2023-04-16T14:49:49.977Z,17.68
2023-04-16T14:52:24.099Z,17.93
2023-04-16T14:55:00.414Z,17.46
2023-04-16T14:57:34.920Z,17.32
2023-04-16T15:00:12.128Z,17.02
2023-04-16T15:02:50.393Z,16.80
2023-04-16T15:08:12.691Z,16.37
2023-04-16T15:10:46.387Z,16.15
2023-04-16T15:13:20.246Z,16.08
2023-04-16T15:15:54.580Z,15.64
2023-04-16T15:18:29.355Z,15.43
2023-04-16T15:21:03.122Z,15.25
2023-04-16T15:23:36.901Z,14.86
2023-04-16T15:26:10.739Z,14.56
2023-04-16T15:28:44.125Z,14.35
2023-04-16T15:34:02.720Z,14.25
2023-04-16T15:36:36.723Z,14.12
2023-04-16T15:39:10.505Z,14.12
2023-04-16T15:41:59.339Z,14.19
2023-04-16T15:47:13.707Z,14.24
2023-04-16T15:52:29.489Z,13.93
2023-04-16T15:55:04.377Z,13.57
2023-04-16T15:57:38.015Z,13.43
2023-04-16T16:00:15.078Z,13.35
2023-04-16T16:02:49.752Z,13.44
2023-04-16T16:05:23.791Z,13.45
2023-04-16T16:07:58.634Z,13.53
2023-04-16T16:10:32.366Z,13.44
2023-04-16T16:13:08.258Z,13.30
2023-04-16T16:15:41.773Z,13.20
2023-04-16T16:18:15.683Z,13.10
2023-04-16T16:20:49.164Z,13.00
2023-04-16T16:23:22.847Z,13.01
2023-04-16T16:25:57.089Z,12.99
2023-04-16T16:28:31.138Z,13.00
2023-04-16T16:31:06.551Z,12.94
2023-04-16T16:33:40.719Z,12.82
2023-04-16T16:36:15.469Z,12.85
2023-04-16T16:38:48.730Z,12.89
2023-04-16T16:41:22.592Z,12.86
2023-04-16T16:43:56.567Z,12.79
2023-04-16T16:46:33.421Z,12.73
2023-04-16T16:49:08.547Z,12.66
2023-04-16T16:51:42.136Z,12.59
2023-04-16T16:54:15.799Z,12.56
2023-04-16T16:56:52.460Z,12.46
2023-04-16T16:59:26.646Z,12.42
2023-04-16T17:02:00.069Z,12.39
2023-04-16T17:04:33.401Z,12.33
2023-04-16T17:07:06.753Z,12.28
2023-04-16T17:09:42.928Z,12.22
2023-04-16T17:12:16.420Z,12.22
2023-04-16T17:14:53.212Z,12.18
2023-04-16T17:17:28.358Z,12.11
2023-04-16T17:20:03.477Z,12.06
2023-04-16T17:22:39.626Z,12.01
2023-04-16T17:25:13.994Z,11.95
2023-04-16T17:27:47.281Z,11.90
2023-04-16T17:30:26.171Z,11.88
2023-04-16T17:33:00.878Z,11.89
2023-04-16T17:35:34.807Z,11.86
2023-04-16T17:38:08.333Z,11.77
2023-04-16T17:40:42.143Z,11.70
2023-04-16T17:43:19.835Z,11.64
2023-04-16T17:45:53.259Z,11.58
2023-04-16T17:48:29.092Z,11.56
2023-04-16T17:51:04.026Z,11.54
2023-04-16T17:53:37.330Z,11.50
2023-04-16T17:56:10.749Z,11.47
2023-04-16T17:58:44.191Z,11.48
2023-04-16T18:01:18.213Z,11.46
2023-04-16T18:03:52.090Z,11.45
2023-04-16T18:06:26.531Z,11.44
2023-04-16T18:08:59.699Z,11.43
2023-04-16T18:11:32.871Z,11.43
2023-04-16T18:14:06.322Z,11.38
2023-04-16T18:16:39.529Z,11.35
2023-04-16T18:19:13.300Z,11.33
2023-04-16T18:21:46.985Z,11.32
2023-04-16T18:24:23.879Z,11.33
2023-04-16T18:26:57.613Z,11.32
2023-04-16T18:29:33.816Z,11.31
2023-04-16T18:32:06.530Z,11.28
2023-04-16T18:34:40.122Z,11.24
2023-04-16T18:37:15.268Z,11.26
2023-04-16T18:42:54.280Z,11.43
2023-04-16T18:45:28.476Z,11.32
2023-04-16T18:48:03.498Z,11.31
2023-04-16T18:50:36.648Z,11.32
2023-04-16T18:53:10.682Z,11.29
2023-04-16T18:55:44.047Z,11.27
2023-04-16T18:58:17.248Z,11.26
2023-04-16T19:00:52.536Z,11.29
2023-04-16T19:03:25.975Z,11.27
2023-04-16T19:05:59.155Z,11.27
2023-04-16T19:08:36.490Z,11.24
2023-04-16T19:11:11.651Z,11.23
2023-04-16T19:13:47.849Z,11.23
2023-04-16T19:16:20.990Z,11.19
2023-04-16T19:18:56.833Z,10.93
2023-04-16T19:21:30.084Z,11.19
2023-04-16T19:24:03.330Z,11.17
2023-04-16T19:26:41.461Z,11.17
2023-04-16T19:29:17.980Z,11.10
2023-04-16T19:31:51.441Z,11.04
2023-04-16T19:34:24.590Z,11.02
2023-04-16T19:36:58.170Z,11.00
2023-04-16T19:39:31.707Z,10.94
2023-04-16T19:42:05.313Z,10.90
2023-04-16T19:44:38.571Z,10.87
2023-04-16T19:47:11.898Z,10.85
2023-04-16T19:49:45.036Z,10.81
2023-04-16T19:52:18.131Z,10.78
2023-04-16T19:54:51.501Z,10.73
2023-04-16T19:57:24.876Z,10.68
2023-04-16T19:59:58.307Z,10.65
2023-04-16T20:02:33.022Z,10.63
2023-04-16T20:05:07.554Z,10.63
2023-04-16T20:07:40.953Z,10.62
2023-04-16T20:10:14.381Z,10.61
2023-04-16T20:12:47.710Z,10.60
2023-04-16T20:15:21.784Z,10.56
2023-04-16T20:17:56.468Z,10.54
2023-04-16T20:20:29.836Z,10.53
2023-04-16T20:23:03.051Z,10.53
2023-04-16T20:25:36.495Z,10.52
2023-04-16T20:28:09.838Z,10.52
2023-04-16T20:30:43.285Z,10.54
2023-04-16T20:33:16.523Z,10.57
2023-04-16T20:35:52.279Z,10.56
2023-04-16T20:38:25.630Z,10.53
2023-04-16T20:41:00.634Z,10.52
2023-04-16T20:43:36.914Z,10.52
2023-04-16T20:46:10.915Z,10.53
2023-04-16T20:48:44.223Z,10.51
2023-04-16T20:51:18.296Z,10.50
2023-04-16T20:53:52.288Z,10.49
2023-04-16T20:56:26.041Z,10.46
2023-04-16T20:58:59.502Z,10.48
2023-04-16T21:01:33.250Z,10.43
2023-04-16T21:04:07.316Z,10.40
2023-04-16T21:06:43.823Z,10.38
2023-04-16T21:09:17.679Z,10.33
2023-04-16T21:11:55.936Z,10.29
2023-04-16T21:14:31.195Z,10.24
2023-04-16T21:17:04.833Z,10.20
2023-04-16T21:19:38.493Z,10.15
2023-04-16T21:22:12.095Z,10.11
2023-04-16T21:24:45.683Z,10.06
2023-04-16T21:27:19.056Z,10.04
2023-04-16T21:29:52.935Z,10.02
2023-04-16T21:32:26.684Z,10.00
2023-04-16T21:35:00.432Z,9.97
2023-04-16T21:37:34.328Z,9.94
2023-04-16T21:40:09.489Z,9.91
2023-04-16T21:42:44.413Z,9.89
2023-04-16T21:45:18.178Z,9.89
2023-04-16T21:47:51.791Z,9.89
2023-04-16T21:50:27.251Z,9.88
2023-04-16T21:53:04.090Z,9.86
2023-04-16T21:55:37.984Z,9.85
2023-04-16T21:58:11.723Z,9.81
2023-04-16T22:00:45.491Z,9.78
2023-04-16T22:03:19.261Z,9.75
2023-04-16T22:05:53.218Z,9.71
2023-04-16T22:08:27.282Z,9.69
2023-04-16T22:11:01.587Z,9.67
2023-04-16T22:16:07.813Z,9.77
2023-04-16T22:18:42.038Z,9.67
2023-04-16T22:21:15.566Z,9.68
2023-04-16T22:23:49.354Z,9.67
2023-04-16T22:26:22.655Z,9.67
2023-04-16T22:28:56.501Z,9.66
2023-04-16T22:31:30.127Z,9.63
2023-04-16T22:34:03.811Z,9.65
2023-04-16T22:36:37.336Z,9.62
2023-04-16T22:39:10.792Z,9.63
2023-04-16T22:41:44.715Z,9.62
2023-04-16T22:44:18.231Z,9.63
2023-04-16T22:46:52.079Z,9.65
2023-04-16T22:49:26.452Z,9.64
2023-04-16T22:52:00.400Z,9.65
2023-04-16T22:54:34.293Z,9.67
2023-04-16T22:57:09.388Z,9.66
2023-04-16T22:59:43.163Z,9.67
2023-04-16T23:02:16.900Z,9.65
2023-04-16T23:04:50.530Z,9.64
2023-04-16T23:07:24.361Z,9.63
2023-04-16T23:09:57.841Z,9.64
2023-04-16T23:12:31.519Z,9.66
2023-04-16T23:15:06.634Z,9.64
2023-04-16T23:17:40.890Z,9.66
2023-04-16T23:20:15.767Z,9.64
2023-04-16T23:22:49.457Z,9.64
2023-04-16T23:25:23.778Z,9.63
2023-04-16T23:27:57.307Z,9.63
2023-04-16T23:30:31.224Z,9.63
2023-04-16T23:33:04.693Z,9.61
2023-04-16T23:35:38.208Z,9.59
2023-04-16T23:38:11.948Z,9.59
2023-04-16T23:40:45.794Z,9.61
2023-04-16T23:43:19.511Z,9.58
2023-04-16T23:45:53.384Z,9.56
2023-04-16T23:48:27.207Z,9.54
2023-04-16T23:51:00.985Z,9.51
2023-04-16T23:53:36.094Z,9.49
2023-04-16T23:56:11.529Z,9.47
2023-04-16T23:58:44.816Z,9.44
